sensor_id;sensor_type;location;lat;lon;timestamp;P1;durP1;ratioP1;P2;durP2;ratioP2
21166;SDS011;10741;52.272;9.580;2022-12-18T00:01:35;12.03;;;6.60;;
21166;SDS011;10741;52.272;9.580;2022-12-18T00:04:03;12.50;;;6.23;;
21166;SDS011;10741;52.272;9.580;2022-12-18T00:06:30;9.90;;;5.67;;
21166;SDS011;10741;52.272;9.580;2022-12-18T00:08:58;10.97;;;5.57;;
21166;SDS011;10741;52.272;9.580;2022-12-18T00:11:26;12.17;;;5.03;;
21166;SDS011;10741;52.272;9.580;2022-12-18T00:13:54;15.97;;;6.67;;
21166;SDS011;10741;52.272;9.580;2022-12-18T00:16:21;11.53;;;6.60;;
21166;SDS011;10741;52.272;9.580;2022-12-18T00:18:49;16.83;;;7.90;;
21166;SDS011;10741;52.272;9.580;2022-12-18T00:21:17;12.43;;;7.03;;
21166;SDS011;10741;52.272;9.580;2022-12-18T00:23:43;12.10;;;6.93;;
21166;SDS011;10741;52.272;9.580;2022-12-18T00:26:11;11.93;;;7.37;;
21166;SDS011;10741;52.272;9.580;2022-12-18T00:28:44;11.80;;;7.13;;
21166;SDS011;10741;52.272;9.580;2022-12-18T00:31:12;13.83;;;6.77;;
21166;SDS011;10741;52.272;9.580;2022-12-18T00:33:40;11.97;;;6.73;;
21166;SDS011;10741;52.272;9.580;2022-12-18T00:36:07;9.93;;;6.37;;
21166;SDS011;10741;52.272;9.580;2022-12-18T00:38:37;11.70;;;6.30;;
21166;SDS011;10741;52.272;9.580;2022-12-18T00:41:03;11.57;;;6.77;;
21166;SDS011;10741;52.272;9.580;2022-12-18T00:43:30;12.00;;;6.00;;
21166;SDS011;10741;52.272;9.580;2022-12-18T00:45:56;10.53;;;5.83;;
21166;SDS011;10741;52.272;9.580;2022-12-18T00:48:21;12.77;;;6.13;;
21166;SDS011;10741;52.272;9.580;2022-12-18T00:50:47;11.40;;;6.13;;
21166;SDS011;10741;52.272;9.580;2022-12-18T00:53:14;8.33;;;5.60;;
21166;SDS011;10741;52.272;9.580;2022-12-18T00:55:40;15.00;;;6.57;;
21166;SDS011;10741;52.272;9.580;2022-12-18T00:58:07;12.80;;;6.03;;
21166;SDS011;10741;52.272;9.580;2022-12-18T01:00:34;11.33;;;6.00;;
21166;SDS011;10741;52.272;9.580;2022-12-18T01:03:00;12.77;;;6.00;;
21166;SDS011;10741;52.272;9.580;2022-12-18T01:05:26;10.50;;;5.33;;
21166;SDS011;10741;52.272;9.580;2022-12-18T01:07:52;11.87;;;6.33;;
21166;SDS011;10741;52.272;9.580;2022-12-18T01:10:18;11.30;;;6.13;;
21166;SDS011;10741;52.272;9.580;2022-12-18T01:12:44;11.10;;;5.73;;
21166;SDS011;10741;52.272;9.580;2022-12-18T01:15:10;8.83;;;5.47;;
21166;SDS011;10741;52.272;9.580;2022-12-18T01:17:38;10.57;;;5.50;;
21166;SDS011;10741;52.272;9.580;2022-12-18T01:20:04;12.03;;;6.10;;
21166;SDS011;10741;52.272;9.580;2022-12-18T01:22:30;11.53;;;6.03;;
21166;SDS011;10741;52.272;9.580;2022-12-18T01:24:58;8.87;;;5.30;;
21166;SDS011;10741;52.272;9.580;2022-12-18T01:27:24;11.53;;;5.93;;
21166;SDS011;10741;52.272;9.580;2022-12-18T01:29:49;9.23;;;4.87;;
21166;SDS011;10741;52.272;9.580;2022-12-18T01:32:15;9.17;;;5.37;;
21166;SDS011;10741;52.272;9.580;2022-12-18T01:34:41;12.10;;;5.00;;
21166;SDS011;10741;52.272;9.580;2022-12-18T01:37:07;8.17;;;5.10;;
21166;SDS011;10741;52.272;9.580;2022-12-18T01:39:33;8.87;;;5.03;;
21166;SDS011;10741;52.272;9.580;2022-12-18T01:41:59;8.23;;;5.30;;
21166;SDS011;10741;52.272;9.580;2022-12-18T01:50:12;7.27;;;4.67;;
21166;SDS011;10741;52.272;9.580;2022-12-18T01:52:49;7.73;;;4.30;;
21166;SDS011;10741;52.272;9.580;2022-12-18T01:55:19;9.90;;;4.77;;
21166;SDS011;10741;52.272;9.580;2022-12-18T01:57:49;7.07;;;4.00;;
21166;SDS011;10741;52.272;9.580;2022-12-18T02:00:19;6.80;;;4.20;;
21166;SDS011;10741;52.272;9.580;2022-12-18T02:02:46;11.50;;;4.47;;
21166;SDS011;10741;52.272;9.580;2022-12-18T02:05:14;7.40;;;3.93;;
21166;SDS011;10741;52.272;9.580;2022-12-18T02:07:46;7.13;;;3.70;;
21166;SDS011;10741;52.272;9.580;2022-12-18T02:10:24;7.57;;;3.93;;
21166;SDS011;10741;52.272;9.580;2022-12-18T02:15:41;5.83;;;3.60;;
21166;SDS011;10741;52.272;9.580;2022-12-18T02:18:20;7.30;;;3.67;;
21166;SDS011;10741;52.272;9.580;2022-12-18T02:21:09;8.33;;;4.30;;
21166;SDS011;10741;52.272;9.580;2022-12-18T02:26:43;6.63;;;3.90;;
21166;SDS011;10741;52.272;9.580;2022-12-18T02:31:57;8.43;;;4.00;;
21166;SDS011;10741;52.272;9.580;2022-12-18T02:34:25;10.47;;;4.37;;
21166;SDS011;10741;52.272;9.580;2022-12-18T02:36:55;6.67;;;3.93;;
21166;SDS011;10741;52.272;9.580;2022-12-18T02:39:22;7.97;;;4.10;;
21166;SDS011;10741;52.272;9.580;2022-12-18T02:41:51;7.13;;;3.90;;
21166;SDS011;10741;52.272;9.580;2022-12-18T02:44:18;7.13;;;4.40;;
21166;SDS011;10741;52.272;9.580;2022-12-18T02:46:48;6.67;;;4.10;;
21166;SDS011;10741;52.272;9.580;2022-12-18T02:54:56;6.70;;;4.00;;
21166;SDS011;10741;52.272;9.580;2022-12-18T02:57:34;5.07;;;3.80;;
21166;SDS011;10741;52.272;9.580;2022-12-18T03:00:20;6.93;;;4.40;;
21166;SDS011;10741;52.272;9.580;2022-12-18T03:02:57;8.77;;;5.30;;
21166;SDS011;10741;52.272;9.580;2022-12-18T03:05:41;11.73;;;5.50;;
21166;SDS011;10741;52.272;9.580;2022-12-18T03:08:19;10.57;;;6.03;;
21166;SDS011;10741;52.272;9.580;2022-12-18T03:10:54;10.60;;;6.43;;
21166;SDS011;10741;52.272;9.580;2022-12-18T03:13:33;10.77;;;6.57;;
21166;SDS011;10741;52.272;9.580;2022-12-18T03:16:18;11.67;;;7.23;;
21166;SDS011;10741;52.272;9.580;2022-12-18T03:18:52;12.80;;;6.87;;
21166;SDS011;10741;52.272;9.580;2022-12-18T03:21:24;12.33;;;6.63;;
21166;SDS011;10741;52.272;9.580;2022-12-18T03:23:53;11.17;;;6.90;;
21166;SDS011;10741;52.272;9.580;2022-12-18T03:26:21;10.60;;;6.97;;
21166;SDS011;10741;52.272;9.580;2022-12-18T03:28:54;12.67;;;7.23;;
21166;SDS011;10741;52.272;9.580;2022-12-18T03:31:27;13.13;;;7.40;;
21166;SDS011;10741;52.272;9.580;2022-12-18T03:33:57;13.27;;;7.30;;
21166;SDS011;10741;52.272;9.580;2022-12-18T03:36:26;13.23;;;7.23;;
21166;SDS011;10741;52.272;9.580;2022-12-18T03:38:52;13.77;;;6.63;;
21166;SDS011;10741;52.272;9.580;2022-12-18T03:41:24;11.40;;;6.70;;
21166;SDS011;10741;52.272;9.580;2022-12-18T03:49:11;16.70;;;8.03;;
21166;SDS011;10741;52.272;9.580;2022-12-18T03:52:11;15.30;;;8.07;;
21166;SDS011;10741;52.272;9.580;2022-12-18T03:54:51;12.20;;;6.73;;
21166;SDS011;10741;52.272;9.580;2022-12-18T03:57:21;14.00;;;7.57;;
21166;SDS011;10741;52.272;9.580;2022-12-18T03:59:50;16.90;;;7.37;;
21166;SDS011;10741;52.272;9.580;2022-12-18T04:02:21;15.57;;;7.80;;
21166;SDS011;10741;52.272;9.580;2022-12-18T04:04:48;15.37;;;7.10;;
21166;SDS011;10741;52.272;9.580;2022-12-18T04:07:21;12.70;;;7.90;;
21166;SDS011;10741;52.272;9.580;2022-12-18T04:09:48;13.83;;;7.93;;
21166;SDS011;10741;52.272;9.580;2022-12-18T04:12:17;14.30;;;7.87;;
21166;SDS011;10741;52.272;9.580;2022-12-18T04:14:43;14.83;;;8.27;;
21166;SDS011;10741;52.272;9.580;2022-12-18T04:17:08;12.17;;;7.13;;
21166;SDS011;10741;52.272;9.580;2022-12-18T04:19:34;15.03;;;6.87;;
21166;SDS011;10741;52.272;9.580;2022-12-18T04:22:00;11.80;;;7.47;;
21166;SDS011;10741;52.272;9.580;2022-12-18T04:24:25;11.77;;;7.37;;
21166;SDS011;10741;52.272;9.580;2022-12-18T04:26:51;15.33;;;7.60;;
21166;SDS011;10741;52.272;9.580;2022-12-18T04:29:17;11.00;;;6.80;;
21166;SDS011;10741;52.272;9.580;2022-12-18T04:31:43;12.83;;;7.40;;
21166;SDS011;10741;52.272;9.580;2022-12-18T04:34:09;11.83;;;6.63;;
21166;SDS011;10741;52.272;9.580;2022-12-18T04:36:34;14.53;;;7.37;;
21166;SDS011;10741;52.272;9.580;2022-12-18T04:39:00;15.53;;;7.73;;
21166;SDS011;10741;52.272;9.580;2022-12-18T04:41:26;12.67;;;7.10;;
21166;SDS011;10741;52.272;9.580;2022-12-18T04:43:51;11.13;;;7.00;;
21166;SDS011;10741;52.272;9.580;2022-12-18T04:46:17;15.40;;;7.00;;
21166;SDS011;10741;52.272;9.580;2022-12-18T04:48:44;13.57;;;7.47;;
21166;SDS011;10741;52.272;9.580;2022-12-18T04:51:11;14.47;;;7.47;;
21166;SDS011;10741;52.272;9.580;2022-12-18T04:53:37;14.20;;;6.77;;
21166;SDS011;10741;52.272;9.580;2022-12-18T04:56:04;12.40;;;6.63;;
21166;SDS011;10741;52.272;9.580;2022-12-18T04:58:37;11.43;;;6.33;;
21166;SDS011;10741;52.272;9.580;2022-12-18T05:01:05;14.07;;;6.57;;
21166;SDS011;10741;52.272;9.580;2022-12-18T05:03:32;11.37;;;6.50;;
21166;SDS011;10741;52.272;9.580;2022-12-18T05:05:58;7.83;;;3.77;;
21166;SDS011;10741;52.272;9.580;2022-12-18T05:08:24;12.43;;;6.80;;
21166;SDS011;10741;52.272;9.580;2022-12-18T05:10:57;10.83;;;7.00;;
21166;SDS011;10741;52.272;9.580;2022-12-18T05:13:27;10.13;;;6.30;;
21166;SDS011;10741;52.272;9.580;2022-12-18T05:15:53;10.80;;;5.80;;
21166;SDS011;10741;52.272;9.580;2022-12-18T05:18:20;11.23;;;6.20;;
21166;SDS011;10741;52.272;9.580;2022-12-18T05:20:46;11.43;;;6.07;;
21166;SDS011;10741;52.272;9.580;2022-12-18T05:23:12;13.60;;;6.17;;
21166;SDS011;10741;52.272;9.580;2022-12-18T05:25:38;10.00;;;6.07;;
21166;SDS011;10741;52.272;9.580;2022-12-18T05:28:03;10.43;;;6.57;;
21166;SDS011;10741;52.272;9.580;2022-12-18T05:30:29;11.20;;;5.70;;
21166;SDS011;10741;52.272;9.580;2022-12-18T05:32:55;11.17;;;5.50;;
21166;SDS011;10741;52.272;9.580;2022-12-18T05:35:21;9.10;;;5.10;;
21166;SDS011;10741;52.272;9.580;2022-12-18T05:37:46;8.67;;;4.10;;
21166;SDS011;10741;52.272;9.580;2022-12-18T05:40:12;8.93;;;4.77;;
21166;SDS011;10741;52.272;9.580;2022-12-18T05:42:38;8.57;;;4.40;;
21166;SDS011;10741;52.272;9.580;2022-12-18T05:45:04;7.97;;;4.70;;
21166;SDS011;10741;52.272;9.580;2022-12-18T05:47:30;5.53;;;3.67;;
21166;SDS011;10741;52.272;9.580;2022-12-18T05:49:56;6.33;;;4.10;;
21166;SDS011;10741;52.272;9.580;2022-12-18T05:52:22;5.33;;;3.70;;
21166;SDS011;10741;52.272;9.580;2022-12-18T05:54:48;8.90;;;4.27;;
21166;SDS011;10741;52.272;9.580;2022-12-18T05:57:14;6.43;;;4.00;;
21166;SDS011;10741;52.272;9.580;2022-12-18T05:59:39;7.03;;;3.63;;
21166;SDS011;10741;52.272;9.580;2022-12-18T06:02:05;7.67;;;4.03;;
21166;SDS011;10741;52.272;9.580;2022-12-18T06:04:31;8.00;;;4.03;;
21166;SDS011;10741;52.272;9.580;2022-12-18T06:06:57;6.03;;;4.60;;
21166;SDS011;10741;52.272;9.580;2022-12-18T06:09:24;8.07;;;4.17;;
21166;SDS011;10741;52.272;9.580;2022-12-18T06:11:51;6.70;;;4.60;;
21166;SDS011;10741;52.272;9.580;2022-12-18T06:14:17;7.73;;;4.73;;
21166;SDS011;10741;52.272;9.580;2022-12-18T06:16:43;6.90;;;3.60;;
21166;SDS011;10741;52.272;9.580;2022-12-18T06:19:14;9.73;;;4.93;;
21166;SDS011;10741;52.272;9.580;2022-12-18T06:21:41;9.70;;;4.87;;
21166;SDS011;10741;52.272;9.580;2022-12-18T06:24:07;7.87;;;4.87;;
21166;SDS011;10741;52.272;9.580;2022-12-18T06:26:33;8.30;;;4.53;;
21166;SDS011;10741;52.272;9.580;2022-12-18T06:28:58;7.93;;;4.60;;
21166;SDS011;10741;52.272;9.580;2022-12-18T06:31:24;6.73;;;3.93;;
21166;SDS011;10741;52.272;9.580;2022-12-18T06:33:50;7.37;;;4.07;;
21166;SDS011;10741;52.272;9.580;2022-12-18T06:36:16;7.73;;;4.17;;
21166;SDS011;10741;52.272;9.580;2022-12-18T06:38:42;7.23;;;3.50;;
21166;SDS011;10741;52.272;9.580;2022-12-18T06:41:12;7.20;;;4.23;;
21166;SDS011;10741;52.272;9.580;2022-12-18T06:43:39;12.07;;;4.43;;
21166;SDS011;10741;52.272;9.580;2022-12-18T06:46:05;9.03;;;4.60;;
21166;SDS011;10741;52.272;9.580;2022-12-18T06:48:32;8.07;;;4.90;;
21166;SDS011;10741;52.272;9.580;2022-12-18T06:50:58;9.30;;;5.00;;
21166;SDS011;10741;52.272;9.580;2022-12-18T06:53:24;6.83;;;4.53;;
21166;SDS011;10741;52.272;9.580;2022-12-18T06:55:50;6.67;;;4.67;;
21166;SDS011;10741;52.272;9.580;2022-12-18T06:58:16;10.10;;;4.80;;
21166;SDS011;10741;52.272;9.580;2022-12-18T07:00:42;8.67;;;5.20;;
21166;SDS011;10741;52.272;9.580;2022-12-18T07:03:08;11.90;;;5.53;;
21166;SDS011;10741;52.272;9.580;2022-12-18T07:05:34;11.87;;;5.93;;
21166;SDS011;10741;52.272;9.580;2022-12-18T07:08:04;8.03;;;5.27;;
21166;SDS011;10741;52.272;9.580;2022-12-18T07:10:29;11.00;;;6.10;;
21166;SDS011;10741;52.272;9.580;2022-12-18T07:12:55;10.97;;;5.47;;
21166;SDS011;10741;52.272;9.580;2022-12-18T07:15:21;10.27;;;5.87;;
21166;SDS011;10741;52.272;9.580;2022-12-18T07:17:47;10.23;;;5.93;;
21166;SDS011;10741;52.272;9.580;2022-12-18T07:20:12;10.60;;;5.20;;
21166;SDS011;10741;52.272;9.580;2022-12-18T07:22:38;8.43;;;5.23;;
21166;SDS011;10741;52.272;9.580;2022-12-18T07:25:04;7.60;;;5.23;;
21166;SDS011;10741;52.272;9.580;2022-12-18T07:27:30;8.07;;;5.13;;
21166;SDS011;10741;52.272;9.580;2022-12-18T07:29:59;10.50;;;5.43;;
21166;SDS011;10741;52.272;9.580;2022-12-18T07:32:24;9.30;;;5.63;;
21166;SDS011;10741;52.272;9.580;2022-12-18T07:34:50;7.10;;;4.67;;
21166;SDS011;10741;52.272;9.580;2022-12-18T07:37:16;8.67;;;5.03;;
21166;SDS011;10741;52.272;9.580;2022-12-18T07:39:42;8.23;;;4.67;;
21166;SDS011;10741;52.272;9.580;2022-12-18T07:42:07;7.67;;;5.33;;
21166;SDS011;10741;52.272;9.580;2022-12-18T07:44:51;8.13;;;5.20;;
21166;SDS011;10741;52.272;9.580;2022-12-18T07:47:17;9.50;;;5.97;;
21166;SDS011;10741;52.272;9.580;2022-12-18T07:49:46;8.60;;;5.03;;
21166;SDS011;10741;52.272;9.580;2022-12-18T07:52:12;8.53;;;4.30;;
21166;SDS011;10741;52.272;9.580;2022-12-18T07:54:38;7.33;;;4.17;;
21166;SDS011;10741;52.272;9.580;2022-12-18T07:57:05;8.30;;;4.37;;
21166;SDS011;10741;52.272;9.580;2022-12-18T07:59:31;7.37;;;4.10;;
21166;SDS011;10741;52.272;9.580;2022-12-18T08:01:57;8.50;;;4.30;;
21166;SDS011;10741;52.272;9.580;2022-12-18T08:04:23;6.67;;;4.57;;
21166;SDS011;10741;52.272;9.580;2022-12-18T08:06:49;9.33;;;5.27;;
21166;SDS011;10741;52.272;9.580;2022-12-18T08:09:15;11.33;;;5.20;;
21166;SDS011;10741;52.272;9.580;2022-12-18T08:11:41;8.53;;;5.30;;
21166;SDS011;10741;52.272;9.580;2022-12-18T08:14:07;9.97;;;5.80;;
21166;SDS011;10741;52.272;9.580;2022-12-18T08:16:33;10.30;;;6.10;;
21166;SDS011;10741;52.272;9.580;2022-12-18T08:18:59;10.20;;;5.63;;
21166;SDS011;10741;52.272;9.580;2022-12-18T08:21:28;9.47;;;5.50;;
21166;SDS011;10741;52.272;9.580;2022-12-18T08:23:56;12.40;;;5.87;;
21166;SDS011;10741;52.272;9.580;2022-12-18T08:26:24;9.47;;;5.13;;
21166;SDS011;10741;52.272;9.580;2022-12-18T08:28:51;9.70;;;4.60;;
21166;SDS011;10741;52.272;9.580;2022-12-18T08:31:18;8.70;;;4.70;;
21166;SDS011;10741;52.272;9.580;2022-12-18T08:33:44;7.37;;;4.70;;
21166;SDS011;10741;52.272;9.580;2022-12-18T08:36:12;8.13;;;4.63;;
21166;SDS011;10741;52.272;9.580;2022-12-18T08:38:38;7.97;;;4.63;;
21166;SDS011;10741;52.272;9.580;2022-12-18T08:41:05;7.37;;;4.90;;
21166;SDS011;10741;52.272;9.580;2022-12-18T08:43:32;8.57;;;5.40;;
21166;SDS011;10741;52.272;9.580;2022-12-18T08:46:19;9.40;;;5.40;;
21166;SDS011;10741;52.272;9.580;2022-12-18T08:48:47;8.60;;;5.40;;
21166;SDS011;10741;52.272;9.580;2022-12-18T08:51:15;9.33;;;5.40;;
21166;SDS011;10741;52.272;9.580;2022-12-18T08:53:42;9.47;;;6.10;;
21166;SDS011;10741;52.272;9.580;2022-12-18T08:56:09;7.17;;;5.17;;
21166;SDS011;10741;52.272;9.580;2022-12-18T08:58:35;10.13;;;6.20;;
21166;SDS011;10741;52.272;9.580;2022-12-18T09:01:05;8.43;;;6.13;;
21166;SDS011;10741;52.272;9.580;2022-12-18T09:03:33;10.53;;;6.17;;
21166;SDS011;10741;52.272;9.580;2022-12-18T09:06:00;9.90;;;5.93;;
21166;SDS011;10741;52.272;9.580;2022-12-18T09:08:26;11.90;;;6.20;;
21166;SDS011;10741;52.272;9.580;2022-12-18T09:10:52;12.60;;;5.80;;
21166;SDS011;10741;52.272;9.580;2022-12-18T09:13:18;9.27;;;6.00;;
21166;SDS011;10741;52.272;9.580;2022-12-18T09:15:45;10.50;;;5.97;;
21166;SDS011;10741;52.272;9.580;2022-12-18T09:18:16;10.13;;;6.47;;
21166;SDS011;10741;52.272;9.580;2022-12-18T09:20:43;8.40;;;5.53;;
21166;SDS011;10741;52.272;9.580;2022-12-18T09:23:10;8.80;;;5.80;;
21166;SDS011;10741;52.272;9.580;2022-12-18T09:25:36;9.30;;;5.70;;
21166;SDS011;10741;52.272;9.580;2022-12-18T09:28:03;12.27;;;5.97;;
21166;SDS011;10741;52.272;9.580;2022-12-18T09:30:43;9.63;;;6.20;;
21166;SDS011;10741;52.272;9.580;2022-12-18T09:33:11;11.13;;;5.83;;
21166;SDS011;10741;52.272;9.580;2022-12-18T09:35:37;8.50;;;5.20;;
21166;SDS011;10741;52.272;9.580;2022-12-18T09:38:04;7.33;;;5.17;;
21166;SDS011;10741;52.272;9.580;2022-12-18T09:40:34;7.77;;;5.50;;
21166;SDS011;10741;52.272;9.580;2022-12-18T09:43:04;8.40;;;5.57;;
21166;SDS011;10741;52.272;9.580;2022-12-18T09:45:38;8.00;;;4.93;;
21166;SDS011;10741;52.272;9.580;2022-12-18T09:48:51;7.70;;;4.80;;
21166;SDS011;10741;52.272;9.580;2022-12-18T09:51:35;7.50;;;4.97;;
21166;SDS011;10741;52.272;9.580;2022-12-18T09:53:55;7.67;;;5.47;;
21166;SDS011;10741;52.272;9.580;2022-12-18T09:56:27;10.93;;;5.57;;
21166;SDS011;10741;52.272;9.580;2022-12-18T09:58:59;8.70;;;5.80;;
21166;SDS011;10741;52.272;9.580;2022-12-18T10:01:27;9.10;;;5.17;;
21166;SDS011;10741;52.272;9.580;2022-12-18T10:03:54;8.80;;;5.13;;
21166;SDS011;10741;52.272;9.580;2022-12-18T10:11:29;9.40;;;5.40;;
21166;SDS011;10741;52.272;9.580;2022-12-18T10:14:06;7.50;;;4.80;;
21166;SDS011;10741;52.272;9.580;2022-12-18T10:28:07;10.33;;;6.20;;
21166;SDS011;10741;52.272;9.580;2022-12-18T10:30:39;9.80;;;5.60;;
21166;SDS011;10741;52.272;9.580;2022-12-18T10:33:09;10.03;;;6.37;;
21166;SDS011;10741;52.272;9.580;2022-12-18T10:35:41;9.03;;;6.50;;
21166;SDS011;10741;52.272;9.580;2022-12-18T10:40:59;7.37;;;4.90;;
21166;SDS011;10741;52.272;9.580;2022-12-18T10:43:30;8.00;;;5.20;;
21166;SDS011;10741;52.272;9.580;2022-12-18T10:46:01;7.17;;;5.00;;
21166;SDS011;10741;52.272;9.580;2022-12-18T10:48:34;8.57;;;4.20;;
21166;SDS011;10741;52.272;9.580;2022-12-18T10:51:22;8.63;;;4.90;;
21166;SDS011;10741;52.272;9.580;2022-12-18T10:54:00;8.37;;;4.83;;
21166;SDS011;10741;52.272;9.580;2022-12-18T10:56:27;8.60;;;5.13;;
21166;SDS011;10741;52.272;9.580;2022-12-18T10:58:57;7.80;;;4.70;;
21166;SDS011;10741;52.272;9.580;2022-12-18T11:01:23;6.70;;;4.43;;
21166;SDS011;10741;52.272;9.580;2022-12-18T11:06:19;7.97;;;5.00;;
21166;SDS011;10741;52.272;9.580;2022-12-18T11:08:59;8.53;;;4.33;;
21166;SDS011;10741;52.272;9.580;2022-12-18T11:11:48;7.67;;;4.47;;
21166;SDS011;10741;52.272;9.580;2022-12-18T11:16:50;7.13;;;4.40;;
21166;SDS011;10741;52.272;9.580;2022-12-18T11:21:49;6.37;;;4.30;;
21166;SDS011;10741;52.272;9.580;2022-12-18T11:24:19;7.67;;;4.60;;
21166;SDS011;10741;52.272;9.580;2022-12-18T11:26:53;7.37;;;4.70;;
21166;SDS011;10741;52.272;9.580;2022-12-18T11:29:23;7.70;;;4.33;;
21166;SDS011;10741;52.272;9.580;2022-12-18T11:32:39;6.40;;;4.67;;
21166;SDS011;10741;52.272;9.580;2022-12-18T11:34:39;7.83;;;4.63;;
21166;SDS011;10741;52.272;9.580;2022-12-18T11:37:10;6.43;;;4.33;;
21166;SDS011;10741;52.272;9.580;2022-12-18T11:39:42;8.33;;;4.60;;
21166;SDS011;10741;52.272;9.580;2022-12-18T11:42:17;8.13;;;4.47;;
21166;SDS011;10741;52.272;9.580;2022-12-18T11:44:51;6.67;;;4.30;;
21166;SDS011;10741;52.272;9.580;2022-12-18T11:49:59;7.33;;;4.13;;
21166;SDS011;10741;52.272;9.580;2022-12-18T11:52:36;7.20;;;4.73;;
21166;SDS011;10741;52.272;9.580;2022-12-18T11:55:15;5.47;;;4.30;;
21166;SDS011;10741;52.272;9.580;2022-12-18T12:00:24;6.13;;;3.90;;
21166;SDS011;10741;52.272;9.580;2022-12-18T12:05:57;5.63;;;3.77;;
21166;SDS011;10741;52.272;9.580;2022-12-18T12:08:47;4.73;;;3.67;;
21166;SDS011;10741;52.272;9.580;2022-12-18T12:16:33;4.73;;;3.73;;
21166;SDS011;10741;52.272;9.580;2022-12-18T12:26:52;7.20;;;3.40;;
21166;SDS011;10741;52.272;9.580;2022-12-18T12:35:02;5.17;;;3.17;;
21166;SDS011;10741;52.272;9.580;2022-12-18T12:40:11;5.17;;;3.23;;
21166;SDS011;10741;52.272;9.580;2022-12-18T12:42:44;5.60;;;3.67;;
21166;SDS011;10741;52.272;9.580;2022-12-18T12:45:53;5.57;;;3.43;;
21166;SDS011;10741;52.272;9.580;2022-12-18T12:48:27;5.17;;;3.13;;
21166;SDS011;10741;52.272;9.580;2022-12-18T12:51:00;4.63;;;3.00;;
21166;SDS011;10741;52.272;9.580;2022-12-18T12:53:33;4.57;;;3.00;;
21166;SDS011;10741;52.272;9.580;2022-12-18T12:56:01;5.73;;;3.63;;
21166;SDS011;10741;52.272;9.580;2022-12-18T13:09:31;4.53;;;2.73;;
21166;SDS011;10741;52.272;9.580;2022-12-18T13:12:02;5.43;;;2.67;;
21166;SDS011;10741;52.272;9.580;2022-12-18T13:15:11;5.00;;;2.87;;
21166;SDS011;10741;52.272;9.580;2022-12-18T13:17:48;7.03;;;3.17;;
21166;SDS011;10741;52.272;9.580;2022-12-18T13:20:14;5.93;;;2.80;;
21166;SDS011;10741;52.272;9.580;2022-12-18T13:22:42;5.57;;;2.80;;
21166;SDS011;10741;52.272;9.580;2022-12-18T13:28:00;5.30;;;3.00;;
21166;SDS011;10741;52.272;9.580;2022-12-18T13:38:24;5.10;;;3.30;;
21166;SDS011;10741;52.272;9.580;2022-12-18T13:41:14;5.57;;;3.43;;
21166;SDS011;10741;52.272;9.580;2022-12-18T13:43:49;5.17;;;3.63;;
21166;SDS011;10741;52.272;9.580;2022-12-18T13:51:39;4.77;;;2.80;;
21166;SDS011;10741;52.272;9.580;2022-12-18T13:56:47;4.67;;;2.93;;
21166;SDS011;10741;52.272;9.580;2022-12-18T14:01:43;5.00;;;3.07;;
21166;SDS011;10741;52.272;9.580;2022-12-18T14:04:19;5.93;;;3.27;;
21166;SDS011;10741;52.272;9.580;2022-12-18T14:06:46;4.23;;;3.03;;
21166;SDS011;10741;52.272;9.580;2022-12-18T14:09:18;5.33;;;3.60;;
21166;SDS011;10741;52.272;9.580;2022-12-18T14:11:53;8.37;;;3.87;;
21166;SDS011;10741;52.272;9.580;2022-12-18T14:14:47;12.50;;;6.47;;
21166;SDS011;10741;52.272;9.580;2022-12-18T14:17:16;10.70;;;6.13;;
21166;SDS011;10741;52.272;9.580;2022-12-18T14:19:43;14.20;;;8.07;;
21166;SDS011;10741;52.272;9.580;2022-12-18T14:22:17;6.03;;;4.60;;
21166;SDS011;10741;52.272;9.580;2022-12-18T14:24:46;11.53;;;7.17;;
21166;SDS011;10741;52.272;9.580;2022-12-18T14:27:24;13.27;;;5.67;;
21166;SDS011;10741;52.272;9.580;2022-12-18T14:29:50;16.40;;;9.77;;
21166;SDS011;10741;52.272;9.580;2022-12-18T14:32:17;11.17;;;6.47;;
21166;SDS011;10741;52.272;9.580;2022-12-18T14:34:46;9.93;;;5.97;;
21166;SDS011;10741;52.272;9.580;2022-12-18T14:37:15;7.07;;;3.93;;
21166;SDS011;10741;52.272;9.580;2022-12-18T14:42:38;6.03;;;3.37;;
21166;SDS011;10741;52.272;9.580;2022-12-18T14:48:00;4.87;;;3.00;;
21166;SDS011;10741;52.272;9.580;2022-12-18T14:50:26;4.93;;;3.23;;
21166;SDS011;10741;52.272;9.580;2022-12-18T14:52:52;7.10;;;4.27;;
21166;SDS011;10741;52.272;9.580;2022-12-18T14:55:18;5.17;;;3.27;;
21166;SDS011;10741;52.272;9.580;2022-12-18T14:57:45;5.70;;;3.53;;
21166;SDS011;10741;52.272;9.580;2022-12-18T15:00:18;4.80;;;3.40;;
21166;SDS011;10741;52.272;9.580;2022-12-18T15:02:55;5.03;;;2.77;;
21166;SDS011;10741;52.272;9.580;2022-12-18T15:05:29;5.03;;;2.93;;
21166;SDS011;10741;52.272;9.580;2022-12-18T15:07:56;3.93;;;2.80;;
21166;SDS011;10741;52.272;9.580;2022-12-18T15:10:33;4.60;;;2.77;;
21166;SDS011;10741;52.272;9.580;2022-12-18T15:17:58;4.63;;;2.63;;
21166;SDS011;10741;52.272;9.580;2022-12-18T15:20:25;4.57;;;2.80;;
21166;SDS011;10741;52.272;9.580;2022-12-18T15:22:51;4.83;;;2.90;;
21166;SDS011;10741;52.272;9.580;2022-12-18T15:25:25;5.23;;;2.90;;
21166;SDS011;10741;52.272;9.580;2022-12-18T15:27:52;6.13;;;3.00;;
21166;SDS011;10741;52.272;9.580;2022-12-18T15:30:19;4.97;;;2.60;;
21166;SDS011;10741;52.272;9.580;2022-12-18T15:32:50;5.30;;;2.77;;
21166;SDS011;10741;52.272;9.580;2022-12-18T15:35:18;4.67;;;2.80;;
21166;SDS011;10741;52.272;9.580;2022-12-18T15:37:46;4.87;;;2.83;;
21166;SDS011;10741;52.272;9.580;2022-12-18T15:40:17;3.53;;;2.50;;
21166;SDS011;10741;52.272;9.580;2022-12-18T15:42:44;3.23;;;2.60;;
21166;SDS011;10741;52.272;9.580;2022-12-18T15:45:29;7.27;;;3.93;;
21166;SDS011;10741;52.272;9.580;2022-12-18T15:47:55;6.60;;;4.67;;
21166;SDS011;10741;52.272;9.580;2022-12-18T15:50:21;6.73;;;4.67;;
21166;SDS011;10741;52.272;9.580;2022-12-18T15:52:49;28.33;;;12.33;;
21166;SDS011;10741;52.272;9.580;2022-12-18T15:55:18;10.33;;;5.40;;
21166;SDS011;10741;52.272;9.580;2022-12-18T15:58:04;4.10;;;3.10;;
21166;SDS011;10741;52.272;9.580;2022-12-18T16:00:32;4.47;;;3.40;;
21166;SDS011;10741;52.272;9.580;2022-12-18T16:02:59;7.13;;;5.07;;
21166;SDS011;10741;52.272;9.580;2022-12-18T16:05:25;13.73;;;7.37;;
21166;SDS011;10741;52.272;9.580;2022-12-18T16:07:52;6.83;;;4.80;;
21166;SDS011;10741;52.272;9.580;2022-12-18T16:10:18;6.67;;;4.60;;
21166;SDS011;10741;52.272;9.580;2022-12-18T16:12:44;9.80;;;5.30;;
21166;SDS011;10741;52.272;9.580;2022-12-18T16:15:12;7.83;;;4.67;;
21166;SDS011;10741;52.272;9.580;2022-12-18T16:17:40;9.33;;;5.20;;
21166;SDS011;10741;52.272;9.580;2022-12-18T16:20:13;6.17;;;4.33;;
21166;SDS011;10741;52.272;9.580;2022-12-18T16:22:40;10.30;;;5.30;;
21166;SDS011;10741;52.272;9.580;2022-12-18T16:25:19;7.83;;;4.90;;
21166;SDS011;10741;52.272;9.580;2022-12-18T16:27:46;9.33;;;4.23;;
21166;SDS011;10741;52.272;9.580;2022-12-18T16:30:15;8.13;;;4.33;;
21166;SDS011;10741;52.272;9.580;2022-12-18T16:32:43;7.00;;;4.30;;
21166;SDS011;10741;52.272;9.580;2022-12-18T16:35:12;6.43;;;4.67;;
21166;SDS011;10741;52.272;9.580;2022-12-18T16:37:39;6.00;;;3.90;;
21166;SDS011;10741;52.272;9.580;2022-12-18T16:40:07;5.40;;;3.97;;
21166;SDS011;10741;52.272;9.580;2022-12-18T16:42:39;7.83;;;4.63;;
21166;SDS011;10741;52.272;9.580;2022-12-18T16:45:06;9.20;;;5.63;;
21166;SDS011;10741;52.272;9.580;2022-12-18T16:47:34;9.93;;;5.30;;
21166;SDS011;10741;52.272;9.580;2022-12-18T16:50:00;6.37;;;4.07;;
21166;SDS011;10741;52.272;9.580;2022-12-18T16:52:25;9.23;;;4.67;;
21166;SDS011;10741;52.272;9.580;2022-12-18T16:54:52;8.07;;;5.17;;
21166;SDS011;10741;52.272;9.580;2022-12-18T16:57:18;6.97;;;4.17;;
21166;SDS011;10741;52.272;9.580;2022-12-18T16:59:45;10.00;;;4.53;;
21166;SDS011;10741;52.272;9.580;2022-12-18T17:02:12;17.00;;;8.30;;